createdAt,value
2017-07-30T00:01:57.430Z,13.82
2017-07-30T00:04:25.926Z,12.40
2017-07-30T00:06:53.655Z,11.65
2017-07-30T00:09:22.179Z,13.13
2017-07-30T00:11:49.913Z,12.35
2017-07-30T00:14:17.701Z,13.05
2017-07-30T00:16:45.418Z,11.95
2017-07-30T00:19:13.914Z,17.35
2017-07-30T00:21:42.435Z,18.50
2017-07-30T00:24:10.166Z,16.27
2017-07-30T00:26:37.961Z,13.48
2017-07-30T00:29:05.685Z,16.75
2017-07-30T00:31:33.410Z,16.00
2017-07-30T00:34:01.171Z,15.27
2017-07-30T00:36:28.903Z,13.15
2017-07-30T00:38:56.687Z,16.05
2017-07-30T00:41:24.428Z,18.95
2017-07-30T00:43:52.155Z,13.32
2017-07-30T00:46:19.916Z,15.95
2017-07-30T00:48:47.653Z,17.27
2017-07-30T00:51:16.202Z,13.35
2017-07-30T00:53:43.931Z,15.80
2017-07-30T00:56:11.668Z,14.75
2017-07-30T00:58:40.186Z,12.15
2017-07-30T01:01:07.917Z,13.02
2017-07-30T01:03:35.719Z,11.25
2017-07-30T01:06:03.454Z,12.52
2017-07-30T01:08:31.179Z,15.95
2017-07-30T01:10:59.704Z,14.80
2017-07-30T01:13:27.431Z,15.77
2017-07-30T01:15:55.982Z,16.10
2017-07-30T01:18:23.706Z,18.23
2017-07-30T01:20:51.427Z,15.98
2017-07-30T01:23:19.950Z,18.77
2017-07-30T01:25:47.671Z,13.85
2017-07-30T01:28:16.214Z,13.70
2017-07-30T01:30:43.942Z,13.60
2017-07-30T01:33:11.688Z,16.58
2017-07-30T01:35:39.458Z,13.65
2017-07-30T01:38:07.180Z,14.57
2017-07-30T01:40:35.732Z,16.98
2017-07-30T01:43:03.458Z,16.87
2017-07-30T01:45:31.190Z,15.45
2017-07-30T01:47:58.947Z,16.08
2017-07-30T01:50:27.434Z,13.27
2017-07-30T01:52:55.238Z,14.70
2017-07-30T01:55:22.967Z,13.80
2017-07-30T01:57:50.720Z,15.07
2017-07-30T02:00:18.533Z,15.32
2017-07-30T02:02:46.283Z,19.87
2017-07-30T02:05:14.061Z,13.98
2017-07-30T02:07:41.789Z,13.93
2017-07-30T02:10:09.531Z,19.23
2017-07-30T02:12:37.286Z,19.00
2017-07-30T02:15:05.011Z,16.15
2017-07-30T02:17:32.809Z,15.57
2017-07-30T02:20:01.301Z,14.05
2017-07-30T02:22:29.026Z,20.23
2017-07-30T02:24:56.783Z,14.38
2017-07-30T02:27:24.510Z,15.15
2017-07-30T02:29:52.474Z,20.25
2017-07-30T02:32:20.208Z,17.23
2017-07-30T02:34:47.945Z,13.40
2017-07-30T02:37:16.480Z,13.73
2017-07-30T02:39:44.219Z,13.88
2017-07-30T02:42:12.018Z,14.70
2017-07-30T02:44:39.747Z,15.85
2017-07-30T02:47:07.481Z,17.90
2017-07-30T02:49:35.244Z,14.57
2017-07-30T02:52:02.968Z,14.05
2017-07-30T02:54:30.751Z,15.88
2017-07-30T02:56:58.468Z,16.83
2017-07-30T02:59:26.191Z,14.70
2017-07-30T03:01:54.715Z,14.35
2017-07-30T03:04:22.451Z,14.05
2017-07-30T03:06:50.241Z,16.85
2017-07-30T03:09:17.974Z,18.50
2017-07-30T03:11:45.771Z,15.27
2017-07-30T03:14:13.539Z,16.70
2017-07-30T03:16:41.266Z,16.55
2017-07-30T03:19:09.051Z,13.98
2017-07-30T03:21:36.775Z,15.68
2017-07-30T03:24:04.500Z,14.93
2017-07-30T03:26:32.265Z,14.05
2017-07-30T03:29:00.763Z,13.75
2017-07-30T03:31:28.555Z,14.40
2017-07-30T03:33:56.282Z,14.52
2017-07-30T03:36:24.771Z,14.75
2017-07-30T03:38:52.522Z,14.77
2017-07-30T03:41:21.022Z,14.18
2017-07-30T03:43:48.797Z,15.32
2017-07-30T03:46:16.529Z,18.65
2017-07-30T03:48:44.258Z,13.02
2017-07-30T03:51:12.015Z,15.20
2017-07-30T03:53:39.747Z,11.25
2017-07-30T03:56:07.531Z,12.18
2017-07-30T03:58:35.267Z,11.30
2017-07-30T04:01:03.000Z,11.32
2017-07-30T04:03:30.786Z,12.57
2017-07-30T04:05:58.513Z,13.52
2017-07-30T04:08:26.242Z,10.65
2017-07-30T04:10:54.032Z,11.05
2017-07-30T04:13:22.521Z,10.75
2017-07-30T04:15:50.237Z,9.85
2017-07-30T04:18:18.015Z,8.60
2017-07-30T04:20:45.739Z,9.65
2017-07-30T04:23:13.478Z,10.30
2017-07-30T04:25:41.228Z,10.48
2017-07-30T04:28:08.946Z,12.02
2017-07-30T04:30:36.662Z,9.80
2017-07-30T04:33:04.417Z,9.60
2017-07-30T04:35:32.134Z,9.50
2017-07-30T04:37:59.851Z,9.02
2017-07-30T04:40:27.602Z,8.68
2017-07-30T04:42:55.324Z,9.55
2017-07-30T04:45:23.043Z,7.80
2017-07-30T04:47:50.835Z,9.45
2017-07-30T04:50:18.556Z,10.27
2017-07-30T04:52:46.312Z,10.82
2017-07-30T04:55:14.103Z,7.95
2017-07-30T04:57:41.827Z,11.57
2017-07-30T05:00:09.586Z,7.93
2017-07-30T05:02:37.343Z,8.95
2017-07-30T05:05:05.079Z,9.10
2017-07-30T05:07:33.601Z,8.82
2017-07-30T05:10:01.354Z,8.10
2017-07-30T05:12:29.074Z,7.55
2017-07-30T05:14:56.802Z,7.82
2017-07-30T05:17:24.551Z,8.10
2017-07-30T05:19:52.272Z,8.57
2017-07-30T05:22:20.803Z,7.87
2017-07-30T05:24:48.572Z,6.95
2017-07-30T05:27:16.295Z,7.12
2017-07-30T05:29:44.048Z,6.78
2017-07-30T05:32:11.773Z,6.75
2017-07-30T05:34:39.491Z,9.00
2017-07-30T05:37:07.243Z,5.35
2017-07-30T05:39:34.964Z,6.65
2017-07-30T05:42:02.682Z,6.85
2017-07-30T05:44:30.441Z,4.97
2017-07-30T05:46:58.175Z,5.85
2017-07-30T05:49:25.972Z,11.12
2017-07-30T05:51:53.722Z,5.63
2017-07-30T05:54:21.442Z,5.20
2017-07-30T05:56:49.190Z,5.47
2017-07-30T05:59:16.916Z,6.00
2017-07-30T06:01:44.711Z,6.87
2017-07-30T06:04:12.474Z,4.90
2017-07-30T06:06:40.278Z,5.10
2017-07-30T06:09:08.030Z,5.07
2017-07-30T06:11:35.747Z,4.87
2017-07-30T06:14:03.547Z,5.70
2017-07-30T06:16:31.495Z,7.10
2017-07-30T06:18:59.985Z,6.13
2017-07-30T06:21:27.750Z,5.83
2017-07-30T06:23:56.233Z,3.90
2017-07-30T06:26:24.010Z,6.63
2017-07-30T06:28:51.734Z,6.27
2017-07-30T06:31:20.223Z,5.13
2017-07-30T06:33:48.739Z,5.20
2017-07-30T06:36:16.459Z,4.20
2017-07-30T06:38:45.012Z,4.67
2017-07-30T06:41:12.734Z,4.00
2017-07-30T06:43:40.451Z,4.50
2017-07-30T06:46:08.972Z,5.07
2017-07-30T06:48:36.687Z,6.73
2017-07-30T06:51:04.458Z,5.53
2017-07-30T06:53:32.947Z,4.10
2017-07-30T06:56:01.479Z,4.00
2017-07-30T06:58:29.227Z,5.00
2017-07-30T07:00:56.951Z,5.00
2017-07-30T07:03:24.728Z,5.00
2017-07-30T07:05:52.446Z,6.03
2017-07-30T07:08:20.172Z,4.80
2017-07-30T07:10:47.921Z,6.40
2017-07-30T07:13:15.637Z,4.80
2017-07-30T07:15:44.189Z,4.23
2017-07-30T07:18:11.901Z,4.30
2017-07-30T07:20:39.625Z,4.27
2017-07-30T07:23:07.374Z,3.77
2017-07-30T07:25:35.099Z,4.90
2017-07-30T07:28:02.877Z,4.30
2017-07-30T07:30:30.595Z,3.70
2017-07-30T07:32:59.077Z,4.90
2017-07-30T07:35:26.822Z,5.40
2017-07-30T07:37:55.548Z,3.40
2017-07-30T07:40:23.349Z,3.30
2017-07-30T07:42:51.072Z,3.47
2017-07-30T07:45:18.806Z,3.23
2017-07-30T07:47:46.566Z,4.00
2017-07-30T07:50:14.298Z,3.20
2017-07-30T07:52:42.086Z,3.60
2017-07-30T07:55:09.811Z,4.77
2017-07-30T07:57:37.528Z,3.13
2017-07-30T08:00:05.279Z,4.03
2017-07-30T08:02:33.039Z,3.73
2017-07-30T08:05:00.823Z,3.20
2017-07-30T08:07:28.547Z,3.10
2017-07-30T08:09:57.033Z,4.60
2017-07-30T08:12:24.782Z,4.50
2017-07-30T08:14:53.258Z,3.60
2017-07-30T08:17:21.800Z,3.97
2017-07-30T08:19:49.532Z,4.43
2017-07-30T08:22:17.264Z,4.23
2017-07-30T08:24:45.778Z,3.03
2017-07-30T08:27:13.504Z,3.67
2017-07-30T08:29:42.059Z,3.23
2017-07-30T08:32:09.776Z,6.43
2017-07-30T08:34:37.493Z,3.17
2017-07-30T08:37:06.881Z,4.83
2017-07-30T08:39:35.415Z,7.67
2017-07-30T08:42:03.398Z,3.00
2017-07-30T08:44:31.138Z,3.53
2017-07-30T08:46:58.870Z,4.57
2017-07-30T08:49:27.384Z,2.97
2017-07-30T08:51:55.242Z,3.70
2017-07-30T08:54:23.026Z,2.87
2017-07-30T08:56:50.749Z,4.03
2017-07-30T08:59:18.469Z,4.90
2017-07-30T09:01:46.228Z,4.90
2017-07-30T09:04:13.952Z,5.17
2017-07-30T09:06:41.736Z,3.40
2017-07-30T09:09:09.454Z,5.40
2017-07-30T09:11:37.357Z,5.33
2017-07-30T09:14:05.302Z,3.63
2017-07-30T09:16:33.074Z,3.33
2017-07-30T09:19:00.858Z,4.00
2017-07-30T09:21:28.590Z,7.03
2017-07-30T09:23:56.307Z,4.73
2017-07-30T09:26:24.823Z,3.80
2017-07-30T09:28:52.538Z,3.87
2017-07-30T09:31:20.493Z,3.60
2017-07-30T09:33:49.177Z,4.47
2017-07-30T09:36:17.159Z,5.03
2017-07-30T09:38:45.800Z,3.87
2017-07-30T09:41:13.639Z,4.13
2017-07-30T09:43:41.490Z,5.63
2017-07-30T09:46:09.238Z,3.90
2017-07-30T09:48:37.126Z,3.70
2017-07-30T09:51:04.943Z,5.87
2017-07-30T09:53:33.100Z,4.00
2017-07-30T09:56:00.901Z,3.57
2017-07-30T09:58:28.636Z,3.63
2017-07-30T10:00:56.502Z,6.67
2017-07-30T10:03:24.264Z,5.20
2017-07-30T10:05:52.031Z,4.83
2017-07-30T10:08:20.584Z,4.77
2017-07-30T10:10:48.310Z,5.60
2017-07-30T10:13:16.055Z,3.90
2017-07-30T10:15:43.873Z,6.10
2017-07-30T10:18:19.401Z,3.53
2017-07-30T10:20:47.296Z,3.83
2017-07-30T10:23:15.088Z,4.77
2017-07-30T10:25:42.906Z,4.67
2017-07-30T10:28:10.692Z,4.03
2017-07-30T10:30:39.266Z,4.90
2017-07-30T10:33:07.519Z,4.73
2017-07-30T10:35:35.462Z,4.80
2017-07-30T10:38:03.300Z,12.33
2017-07-30T10:40:31.938Z,4.70
2017-07-30T10:42:59.661Z,3.97
2017-07-30T10:45:30.495Z,3.90
2017-07-30T10:47:58.345Z,3.70
2017-07-30T10:50:26.207Z,3.80
2017-07-30T10:52:54.069Z,4.77
2017-07-30T10:55:21.808Z,4.90
2017-07-30T10:57:50.358Z,6.43
2017-07-30T11:00:18.334Z,6.60
2017-07-30T11:02:46.096Z,3.47
2017-07-30T11:05:13.890Z,4.57
2017-07-30T11:07:41.681Z,4.53
2017-07-30T11:10:09.675Z,4.87
2017-07-30T11:12:37.395Z,6.60
2017-07-30T11:15:05.121Z,15.70
2017-07-30T11:17:32.875Z,8.43
2017-07-30T11:20:00.606Z,49.87
2017-07-30T11:22:28.401Z,11.10
2017-07-30T11:24:56.119Z,5.23
2017-07-30T11:27:23.839Z,6.77
2017-07-30T11:29:51.595Z,5.20
2017-07-30T11:32:19.320Z,4.53
2017-07-30T11:34:47.103Z,13.80
2017-07-30T11:37:14.824Z,5.50
2017-07-30T11:39:42.546Z,4.87
2017-07-30T11:42:10.300Z,3.77
2017-07-30T11:44:38.790Z,4.67
2017-07-30T11:47:06.569Z,4.07
2017-07-30T11:49:34.292Z,11.53
2017-07-30T11:52:02.787Z,3.80
2017-07-30T11:54:30.548Z,4.80
2017-07-30T11:56:58.267Z,5.63
2017-07-30T11:59:26.047Z,4.20
2017-07-30T12:01:53.779Z,3.57
2017-07-30T12:04:21.505Z,4.87
2017-07-30T12:06:49.263Z,3.07
2017-07-30T12:09:16.990Z,3.60
2017-07-30T12:11:44.775Z,3.87
2017-07-30T12:14:13.272Z,3.93
2017-07-30T12:16:41.004Z,5.80
2017-07-30T12:19:09.519Z,7.30
2017-07-30T12:21:37.239Z,3.70
2017-07-30T12:24:05.776Z,4.23
2017-07-30T12:26:33.502Z,4.80
2017-07-30T12:29:01.230Z,3.93
2017-07-30T12:31:28.990Z,8.27
2017-07-30T12:33:56.726Z,3.60
2017-07-30T12:36:24.529Z,4.17
2017-07-30T12:38:53.023Z,5.23
2017-07-30T12:41:20.747Z,5.87
2017-07-30T12:43:48.510Z,2.90
2017-07-30T12:46:16.229Z,3.70
2017-07-30T12:48:44.008Z,3.23
2017-07-30T12:51:11.747Z,2.97
2017-07-30T12:53:39.474Z,6.80
2017-07-30T12:56:07.231Z,2.80
2017-07-30T12:58:35.723Z,3.30
2017-07-30T13:01:03.508Z,5.87
2017-07-30T13:03:31.227Z,3.00
2017-07-30T13:05:58.942Z,3.23
2017-07-30T13:08:26.693Z,3.80
2017-07-30T13:10:54.415Z,4.77
2017-07-30T13:13:22.223Z,6.47
2017-07-30T13:15:49.942Z,2.90
2017-07-30T13:18:17.665Z,3.37
2017-07-30T13:20:45.419Z,2.77
2017-07-30T13:23:13.147Z,3.40
2017-07-30T13:25:40.932Z,4.17
2017-07-30T13:28:08.669Z,3.47
2017-07-30T13:30:36.394Z,4.30
2017-07-30T13:33:04.151Z,4.40
2017-07-30T13:35:31.897Z,3.33
2017-07-30T13:37:59.683Z,3.17
2017-07-30T13:40:28.174Z,3.67
2017-07-30T13:42:55.903Z,3.00
2017-07-30T13:45:23.656Z,3.43
2017-07-30T13:47:51.398Z,3.13
2017-07-30T13:50:19.178Z,3.90
2017-07-30T13:52:46.900Z,2.87
2017-07-30T13:55:14.627Z,3.27
2017-07-30T13:57:42.371Z,3.20
2017-07-30T14:00:10.103Z,3.50
2017-07-30T14:02:37.889Z,3.53
2017-07-30T14:05:05.610Z,3.50
2017-07-30T14:07:33.339Z,4.50
2017-07-30T14:10:01.863Z,4.60
2017-07-30T14:12:29.599Z,3.50
2017-07-30T14:14:57.376Z,2.97
2017-07-30T14:17:25.106Z,3.63
2017-07-30T14:19:52.871Z,3.83
2017-07-30T14:22:20.623Z,4.23
2017-07-30T14:24:49.122Z,3.20
2017-07-30T14:27:16.891Z,3.27
2017-07-30T14:29:44.610Z,4.10
2017-07-30T14:32:12.386Z,3.80
2017-07-30T14:34:40.875Z,3.53
2017-07-30T14:37:08.604Z,3.37
2017-07-30T14:39:36.359Z,3.47
2017-07-30T14:42:04.082Z,4.67
2017-07-30T14:44:31.855Z,4.50
2017-07-30T14:46:59.581Z,5.00
2017-07-30T14:49:27.313Z,4.33
2017-07-30T14:51:55.095Z,6.73
2017-07-30T14:54:22.825Z,4.27
2017-07-30T14:56:50.612Z,4.53
2017-07-30T14:59:19.146Z,5.17
2017-07-30T15:01:46.876Z,3.80
2017-07-30T15:04:14.638Z,4.43
2017-07-30T15:06:42.382Z,3.30
2017-07-30T15:09:10.390Z,3.27
2017-07-30T15:11:38.123Z,3.80
2017-07-30T15:14:05.851Z,3.83
2017-07-30T15:16:33.619Z,3.60
2017-07-30T15:19:02.111Z,3.33
2017-07-30T15:21:29.922Z,3.53
2017-07-30T15:23:57.670Z,3.23
2017-07-30T15:26:25.397Z,3.13
2017-07-30T15:28:53.148Z,3.13
2017-07-30T15:31:20.867Z,3.17
2017-07-30T15:33:48.650Z,5.60
2017-07-30T15:36:16.388Z,4.67
2017-07-30T15:38:44.111Z,3.80
2017-07-30T15:41:11.866Z,3.43
2017-07-30T15:43:39.587Z,6.50
2017-07-30T15:46:07.363Z,4.30
2017-07-30T15:48:35.091Z,3.60
2017-07-30T15:51:02.815Z,3.93
2017-07-30T15:53:30.567Z,3.47
2017-07-30T15:55:58.287Z,3.53
2017-07-30T15:58:26.070Z,5.03
2017-07-30T16:00:53.796Z,3.30
2017-07-30T16:03:21.518Z,5.27
2017-07-30T16:05:49.272Z,3.00
2017-07-30T16:08:17.756Z,6.27
2017-07-30T16:10:45.535Z,2.77
2017-07-30T16:13:13.262Z,3.07
2017-07-30T16:15:41.767Z,2.63
2017-07-30T16:18:09.545Z,3.43
2017-07-30T16:20:37.271Z,5.17
2017-07-30T16:23:05.816Z,3.80
2017-07-30T16:25:33.552Z,3.30
2017-07-30T16:28:01.507Z,3.03
2017-07-30T16:30:29.469Z,4.03
2017-07-30T16:32:57.783Z,2.70
2017-07-30T16:35:26.359Z,6.40
2017-07-30T16:37:54.214Z,4.75
2017-07-30T16:40:21.969Z,2.75
2017-07-30T16:42:49.731Z,3.17
2017-07-30T16:45:17.588Z,4.15
2017-07-30T16:47:45.466Z,3.05
2017-07-30T16:50:13.364Z,4.10
2017-07-30T16:52:41.151Z,3.53
2017-07-30T16:55:08.994Z,3.15
2017-07-30T16:57:36.930Z,4.10
2017-07-30T17:00:04.839Z,2.87
2017-07-30T17:02:32.669Z,4.65
2017-07-30T17:05:00.445Z,3.00
2017-07-30T17:07:28.980Z,5.32
2017-07-30T17:09:56.858Z,4.30
2017-07-30T17:12:24.778Z,3.83
2017-07-30T17:14:52.606Z,4.95
2017-07-30T17:17:20.338Z,3.30
2017-07-30T17:19:48.125Z,3.45
2017-07-30T17:22:15.853Z,6.75
2017-07-30T17:24:43.812Z,4.45
2017-07-30T17:27:12.633Z,4.43
2017-07-30T17:29:40.405Z,5.32
2017-07-30T17:32:08.184Z,3.20
2017-07-30T17:34:36.000Z,7.53
2017-07-30T17:37:03.835Z,3.60
2017-07-30T17:39:31.626Z,5.57
2017-07-30T17:41:59.460Z,3.20
2017-07-30T17:44:27.239Z,4.75
2017-07-30T17:46:55.899Z,4.22
2017-07-30T17:49:23.728Z,4.70
2017-07-30T17:51:51.469Z,3.97
2017-07-30T17:54:19.216Z,5.53
2017-07-30T17:56:46.963Z,4.18
2017-07-30T17:59:14.732Z,5.75
2017-07-30T18:01:43.279Z,4.40
2017-07-30T18:04:11.133Z,6.40
2017-07-30T18:06:39.024Z,4.70
2017-07-30T18:09:07.140Z,7.57
2017-07-30T18:11:35.661Z,4.47
2017-07-30T18:14:03.436Z,4.55
2017-07-30T18:16:31.307Z,5.43
2017-07-30T18:18:59.326Z,7.40
2017-07-30T18:21:27.984Z,6.25
2017-07-30T18:23:55.855Z,6.05
2017-07-30T18:26:23.688Z,7.00
2017-07-30T18:28:51.432Z,5.60
2017-07-30T18:31:19.465Z,5.15
2017-07-30T18:33:48.955Z,6.75
2017-07-30T18:36:16.694Z,9.02
2017-07-30T18:38:44.495Z,5.93
2017-07-30T18:41:12.990Z,4.90
2017-07-30T18:43:40.783Z,4.93
2017-07-30T18:46:08.543Z,6.97
2017-07-30T18:48:36.284Z,6.53
2017-07-30T18:51:04.033Z,8.40
2017-07-30T18:53:32.531Z,8.20
2017-07-30T18:56:00.344Z,11.38
2017-07-30T18:58:28.075Z,7.15
2017-07-30T19:00:55.795Z,6.12
2017-07-30T19:03:24.311Z,7.62
2017-07-30T19:05:52.034Z,11.15
2017-07-30T19:08:20.580Z,5.85
2017-07-30T19:10:48.311Z,11.85
2017-07-30T19:13:16.030Z,7.00
2017-07-30T19:15:44.547Z,5.82
2017-07-30T19:18:12.286Z,6.07
2017-07-30T19:20:40.071Z,6.75
2017-07-30T19:23:07.791Z,6.50
2017-07-30T19:25:36.291Z,5.47
2017-07-30T19:28:04.051Z,5.82
2017-07-30T19:30:31.775Z,6.87
2017-07-30T19:32:59.559Z,9.40
2017-07-30T19:35:28.053Z,6.12
2017-07-30T19:37:55.771Z,5.53
2017-07-30T19:40:23.527Z,8.30
2017-07-30T19:42:51.287Z,5.70
2017-07-30T19:45:19.102Z,7.97
2017-07-30T19:47:46.839Z,10.27
2017-07-30T19:50:15.324Z,7.97
2017-07-30T19:52:43.845Z,6.70
2017-07-30T19:55:11.567Z,7.90
2017-07-30T19:57:39.349Z,7.05
2017-07-30T20:00:07.107Z,6.47
2017-07-30T20:02:34.836Z,7.25
2017-07-30T20:05:03.352Z,6.05
2017-07-30T20:07:31.074Z,8.63
2017-07-30T20:09:59.691Z,8.60
2017-07-30T20:12:27.411Z,4.95
2017-07-30T20:14:55.140Z,5.18
2017-07-30T20:17:22.898Z,6.10
2017-07-30T20:19:52.319Z,5.78
2017-07-30T20:22:20.109Z,7.22
2017-07-30T20:24:48.630Z,12.70
2017-07-30T20:27:16.355Z,6.43
2017-07-30T20:29:44.961Z,5.85
2017-07-30T20:32:12.678Z,5.00
2017-07-30T20:34:40.456Z,6.90
2017-07-30T20:37:10.700Z,6.15
2017-07-30T20:39:38.430Z,6.22
2017-07-30T20:42:06.952Z,6.47
2017-07-30T20:44:34.678Z,8.48
2017-07-30T20:47:02.453Z,6.45
2017-07-30T20:49:30.171Z,7.87
2017-07-30T20:52:01.104Z,9.13
2017-07-30T20:54:31.452Z,6.00
2017-07-30T20:56:59.938Z,5.62
2017-07-30T20:59:28.481Z,6.93
2017-07-30T21:01:56.199Z,6.68
2017-07-30T21:04:23.944Z,5.65
2017-07-30T21:06:52.170Z,6.03
2017-07-30T21:09:19.886Z,6.10
2017-07-30T21:11:47.667Z,4.90
2017-07-30T21:14:15.466Z,5.12
2017-07-30T21:16:43.184Z,5.82
2017-07-30T21:19:10.936Z,5.78
2017-07-30T21:21:38.659Z,4.80
2017-07-30T21:24:06.442Z,5.25
2017-07-30T21:26:34.157Z,5.15
2017-07-30T21:29:01.875Z,5.20
2017-07-30T21:31:29.623Z,4.60
2017-07-30T21:33:58.106Z,5.72
2017-07-30T21:36:25.898Z,4.68
2017-07-30T21:38:53.620Z,5.35
2017-07-30T21:41:22.106Z,4.90
2017-07-30T21:43:49.870Z,8.02
2017-07-30T21:46:17.592Z,3.03
2017-07-30T21:48:45.366Z,3.67
2017-07-30T21:51:13.094Z,2.70
2017-07-30T21:53:40.815Z,2.67
2017-07-30T21:56:08.568Z,1.62
2017-07-30T21:58:37.060Z,1.87
2017-07-30T22:01:04.863Z,1.77
2017-07-30T22:03:32.587Z,2.75
2017-07-30T22:06:00.305Z,2.08
2017-07-30T22:08:28.069Z,2.55
2017-07-30T22:10:55.787Z,1.50
2017-07-30T22:13:23.568Z,0.90
2017-07-30T22:15:51.295Z,1.58
2017-07-30T22:18:19.018Z,2.28
2017-07-30T22:20:46.779Z,1.60
2017-07-30T22:23:15.280Z,2.25
2017-07-30T22:25:43.063Z,2.17
2017-07-30T22:28:10.788Z,1.10
2017-07-30T22:30:39.271Z,5.03
2017-07-30T22:33:07.027Z,1.95
2017-07-30T22:35:35.516Z,2.25
2017-07-30T22:38:04.058Z,2.33
2017-07-30T22:40:31.778Z,3.58
2017-07-30T22:42:59.491Z,1.95
2017-07-30T22:45:27.241Z,1.62
2017-07-30T22:47:54.963Z,2.17
2017-07-30T22:50:22.743Z,2.15
2017-07-30T22:52:50.470Z,2.08
2017-07-30T22:55:18.191Z,2.53
2017-07-30T22:57:45.941Z,3.25
2017-07-30T23:00:13.667Z,2.85
2017-07-30T23:02:41.447Z,2.50
2017-07-30T23:05:09.167Z,1.77
2017-07-30T23:07:36.894Z,2.40
2017-07-30T23:10:04.653Z,2.28
2017-07-30T23:12:32.382Z,1.90
2017-07-30T23:15:00.163Z,1.85
2017-07-30T23:17:27.890Z,2.28
2017-07-30T23:19:55.617Z,3.03
2017-07-30T23:22:24.127Z,1.75
2017-07-30T23:24:51.851Z,3.62
2017-07-30T23:27:19.630Z,3.62
2017-07-30T23:29:48.114Z,2.42
2017-07-30T23:32:15.830Z,3.60
2017-07-30T23:34:43.584Z,2.05
2017-07-30T23:37:11.300Z,2.80
2017-07-30T23:39:39.078Z,2.35
2017-07-30T23:42:06.791Z,2.08
2017-07-30T23:44:34.504Z,2.05
2017-07-30T23:47:02.270Z,1.60
2017-07-30T23:49:29.995Z,1.87
2017-07-30T23:51:58.542Z,2.75
2017-07-30T23:54:26.259Z,3.72
2017-07-30T23:56:53.982Z,3.15
2017-07-30T23:59:22.505Z,1.90
